createdAt,value
2023-03-06T00:02:53.089Z,16.30
2023-03-06T00:07:56.126Z,20.90
2023-03-06T00:13:04.971Z,15.10
2023-03-06T00:18:08.565Z,12.80
2023-03-06T00:23:12.229Z,21.00
2023-03-06T00:28:16.001Z,20.70
2023-03-06T00:33:19.047Z,25.10
2023-03-06T00:38:22.254Z,19.60
2023-03-06T00:43:25.365Z,17.30
2023-03-06T00:48:28.367Z,13.90
2023-03-06T00:53:31.372Z,11.70
2023-03-06T00:58:34.380Z,19.10
2023-03-06T01:03:37.588Z,15.10
2023-03-06T01:08:40.700Z,8.60
2023-03-06T01:13:44.686Z,16.40
2023-03-06T01:18:48.067Z,17.10
2023-03-06T01:23:51.642Z,14.50
2023-03-06T01:28:54.657Z,15.00
2023-03-06T01:33:57.562Z,14.00
2023-03-06T01:39:00.578Z,14.20
2023-03-06T01:44:03.887Z,16.50
2023-03-06T01:49:18.680Z,14.40
2023-03-06T01:54:26.985Z,20.50
2023-03-06T01:59:30.709Z,16.80
2023-03-06T02:04:35.374Z,9.00
2023-03-06T02:09:39.095Z,16.30
2023-03-06T02:14:42.776Z,14.00
2023-03-06T02:20:04.678Z,16.70
2023-03-06T02:25:32.358Z,11.90
2023-03-06T02:30:36.234Z,17.10
2023-03-06T02:35:40.553Z,20.40
2023-03-06T02:40:47.420Z,12.40
2023-03-06T02:45:52.004Z,12.70
2023-03-06T02:50:55.027Z,17.60
2023-03-06T02:55:57.973Z,9.80
2023-03-06T03:01:00.971Z,22.10
2023-03-06T03:06:06.109Z,9.20
2023-03-06T03:11:09.554Z,10.30
2023-03-06T03:16:15.704Z,12.10
2023-03-06T03:21:19.527Z,22.20
2023-03-06T03:26:22.779Z,12.70
2023-03-06T03:31:25.997Z,8.50
2023-03-06T03:36:29.087Z,11.20
2023-03-06T03:41:33.665Z,14.90
2023-03-06T03:46:36.778Z,15.10
2023-03-06T03:51:39.845Z,14.50
2023-03-06T03:56:44.573Z,21.30
2023-03-06T04:01:47.517Z,12.90
2023-03-06T04:06:50.702Z,11.50
2023-03-06T04:11:53.714Z,17.90
2023-03-06T04:16:56.721Z,14.00
2023-03-06T04:21:59.754Z,11.60
2023-03-06T04:27:02.625Z,15.90
2023-03-06T04:32:06.018Z,19.20
2023-03-06T04:37:23.620Z,14.30
2023-03-06T04:42:26.705Z,14.90
2023-03-06T04:47:29.709Z,17.00
2023-03-06T04:52:32.825Z,18.70
2023-03-06T04:57:36.897Z,17.50
2023-03-06T05:02:39.853Z,12.80
2023-03-06T05:07:43.267Z,15.20
2023-03-06T05:12:46.400Z,10.50
2023-03-06T05:17:49.585Z,10.00
2023-03-06T05:22:52.699Z,21.50
2023-03-06T05:27:55.600Z,14.70
2023-03-06T05:32:59.706Z,24.90
2023-03-06T05:38:02.741Z,26.50
2023-03-06T05:43:06.982Z,17.70
2023-03-06T05:48:13.265Z,25.30
2023-03-06T05:53:16.281Z,28.00
2023-03-06T05:58:19.263Z,24.70
2023-03-06T06:03:23.090Z,35.20
2023-03-06T06:08:26.213Z,27.10
2023-03-06T06:13:29.105Z,23.60
2023-03-06T06:18:32.012Z,23.30
2023-03-06T06:23:35.631Z,19.30
2023-03-06T06:28:38.985Z,16.80
2023-03-06T06:33:42.363Z,13.90
2023-03-06T06:38:45.579Z,14.80
2023-03-06T06:43:48.582Z,17.50
2023-03-06T06:48:54.864Z,20.90
2023-03-06T06:53:58.650Z,16.70
2023-03-06T06:59:15.770Z,18.00
2023-03-06T07:04:20.367Z,17.60
2023-03-06T07:09:23.858Z,13.70
2023-03-06T07:14:27.505Z,12.50
2023-03-06T07:19:30.613Z,8.90
2023-03-06T07:24:33.724Z,11.00
2023-03-06T07:29:36.839Z,14.80
2023-03-06T07:34:39.944Z,11.00
2023-03-06T07:39:43.464Z,9.60
2023-03-06T07:44:46.573Z,11.60
2023-03-06T07:49:49.578Z,12.20
2023-03-06T07:54:52.483Z,12.40
2023-03-06T07:59:55.546Z,15.20
2023-03-06T08:04:58.494Z,14.10
2023-03-06T08:10:01.609Z,23.20
2023-03-06T08:15:05.483Z,15.90
2023-03-06T08:20:10.511Z,19.70
2023-03-06T08:25:13.696Z,18.90
2023-03-06T08:30:17.187Z,23.50
2023-03-06T08:35:20.382Z,25.30
2023-03-06T08:40:23.529Z,20.30
2023-03-06T08:45:26.652Z,24.50
2023-03-06T08:50:29.743Z,17.80
2023-03-06T08:55:37.258Z,17.70
2023-03-06T09:00:40.445Z,16.30
2023-03-06T09:05:43.985Z,17.20
2023-03-06T09:10:48.559Z,14.30
2023-03-06T09:15:51.636Z,14.60
2023-03-06T09:20:54.747Z,24.90
2023-03-06T09:25:59.698Z,17.40
2023-03-06T09:31:17.313Z,18.30
2023-03-06T09:36:22.817Z,9.20
2023-03-06T09:41:29.412Z,9.70
2023-03-06T09:46:46.136Z,15.00
2023-03-06T09:52:28.357Z,11.40
2023-03-06T09:57:35.864Z,13.20
2023-03-06T10:02:46.388Z,10.80
2023-03-06T10:07:57.246Z,7.10
2023-03-06T10:13:06.493Z,8.50
2023-03-06T10:18:11.916Z,12.10
2023-03-06T10:23:27.080Z,7.90
2023-03-06T10:28:41.223Z,9.60
2023-03-06T10:33:57.436Z,16.10
2023-03-06T10:39:04.948Z,17.70
2023-03-06T10:44:09.501Z,9.20
2023-03-06T10:49:35.947Z,9.00
2023-03-06T10:54:42.720Z,9.90
2023-03-06T11:00:25.891Z,6.80
2023-03-06T11:05:28.792Z,6.90
2023-03-06T11:10:32.314Z,7.70
2023-03-06T11:15:35.877Z,9.80
2023-03-06T11:20:52.558Z,7.80
2023-03-06T11:26:02.660Z,5.60
2023-03-06T11:31:17.283Z,9.60
2023-03-06T11:36:28.099Z,6.00
2023-03-06T11:42:01.624Z,7.70
2023-03-06T11:47:23.323Z,8.60
2023-03-06T11:52:54.834Z,10.40
2023-03-06T11:58:16.581Z,7.10
2023-03-06T12:03:25.339Z,8.60
2023-03-06T12:08:40.516Z,5.60
2023-03-06T12:13:59.453Z,9.00
2023-03-06T12:25:06.957Z,6.60
2023-03-06T12:30:35.454Z,5.50
2023-03-06T12:35:55.171Z,10.20
2023-03-06T12:41:26.321Z,10.90
2023-03-06T12:46:30.762Z,9.40
2023-03-06T12:51:34.702Z,7.10
2023-03-06T12:56:39.816Z,7.90
2023-03-06T13:02:08.512Z,7.80
2023-03-06T13:07:39.111Z,9.80
2023-03-06T13:13:08.743Z,8.80
2023-03-06T13:18:24.243Z,11.00
2023-03-06T13:23:33.326Z,14.00
2023-03-06T13:28:50.206Z,12.20
2023-03-06T13:33:54.859Z,21.80
2023-03-06T13:39:09.732Z,20.60
2023-03-06T13:44:24.680Z,16.10
2023-03-06T13:49:28.552Z,46.10
2023-03-06T13:54:56.658Z,22.70
2023-03-06T14:00:51.064Z,14.10
2023-03-06T14:05:54.388Z,10.50
2023-03-06T14:11:27.497Z,12.70
2023-03-06T14:16:49.364Z,11.00
2023-03-06T14:21:56.953Z,14.20
2023-03-06T14:26:59.960Z,9.60
2023-03-06T14:32:06.190Z,9.60
2023-03-06T14:37:20.948Z,23.90
2023-03-06T14:42:27.311Z,76.90
2023-03-06T14:47:32.988Z,50.60
2023-03-06T14:52:36.316Z,45.40
2023-03-06T14:57:39.609Z,95.80
2023-03-06T15:02:43.031Z,33.90
2023-03-06T15:07:46.520Z,18.60
2023-03-06T15:12:49.553Z,69.10
2023-03-06T15:17:53.069Z,84.10
2023-03-06T15:22:56.069Z,33.30
2023-03-06T15:28:43.525Z,40.20
2023-03-06T15:34:09.364Z,129.50
2023-03-06T15:39:41.251Z,87.90
2023-03-06T15:44:48.095Z,108.30
2023-03-06T15:49:53.298Z,37.60
2023-03-06T15:54:56.316Z,24.70
2023-03-06T16:00:01.560Z,25.50
2023-03-06T16:05:15.027Z,29.70
2023-03-06T16:10:27.455Z,34.50
2023-03-06T16:15:33.938Z,29.80
2023-03-06T16:20:36.936Z,27.50
2023-03-06T16:25:42.219Z,23.60
2023-03-06T16:30:46.030Z,23.20
2023-03-06T16:35:50.089Z,21.40
2023-03-06T16:40:53.055Z,18.50
2023-03-06T16:45:56.658Z,20.30
2023-03-06T16:51:00.124Z,29.40
2023-03-06T16:56:03.106Z,31.60
2023-03-06T17:01:07.337Z,34.00
2023-03-06T17:06:17.939Z,31.00
2023-03-06T17:11:20.929Z,47.60
2023-03-06T17:16:23.938Z,35.50
2023-03-06T17:21:27.161Z,49.70
2023-03-06T17:26:30.359Z,51.90
2023-03-06T17:31:33.394Z,34.40
2023-03-06T17:36:36.375Z,60.00
2023-03-06T17:41:39.584Z,40.80
2023-03-06T17:46:43.981Z,37.50
2023-03-06T17:51:47.139Z,39.10
2023-03-06T17:56:50.253Z,31.70
2023-03-06T18:01:59.745Z,45.40
2023-03-06T18:07:02.770Z,36.70
2023-03-06T18:12:05.861Z,62.40
2023-03-06T18:17:09.227Z,42.30
2023-03-06T18:22:12.137Z,50.40
2023-03-06T18:27:15.136Z,31.20
2023-03-06T18:32:19.254Z,26.80
2023-03-06T18:37:22.805Z,21.50
2023-03-06T18:42:26.829Z,21.80
2023-03-06T18:47:30.036Z,20.20
2023-03-06T18:52:34.953Z,26.40
2023-03-06T18:57:38.437Z,50.20
2023-03-06T19:02:41.506Z,52.10
2023-03-06T19:07:44.551Z,38.30
2023-03-06T19:12:47.729Z,33.40
2023-03-06T19:17:51.662Z,33.20
2023-03-06T19:22:54.876Z,34.00
2023-03-06T19:27:58.099Z,26.80
2023-03-06T19:33:01.196Z,39.40
2023-03-06T19:38:04.308Z,51.40
2023-03-06T19:43:07.215Z,31.30
2023-03-06T19:48:12.512Z,34.20
2023-03-06T19:53:16.316Z,26.80
2023-03-06T19:58:19.517Z,33.10
2023-03-06T20:03:22.613Z,31.30
2023-03-06T20:08:25.742Z,43.50
2023-03-06T20:13:28.930Z,34.30
2023-03-06T20:18:32.050Z,33.80
2023-03-06T20:23:35.351Z,35.90
2023-03-06T20:28:40.602Z,43.60
2023-03-06T20:33:48.942Z,55.30
2023-03-06T20:38:52.046Z,52.90
2023-03-06T20:43:55.156Z,53.40
2023-03-06T20:48:58.463Z,55.70
2023-03-06T20:54:02.348Z,77.90
2023-03-06T20:59:06.298Z,73.40
2023-03-06T21:04:10.715Z,53.90
2023-03-06T21:09:15.922Z,46.10
2023-03-06T21:14:18.829Z,39.00
2023-03-06T21:19:21.828Z,45.10
2023-03-06T21:24:24.742Z,71.90
2023-03-06T21:29:27.746Z,81.60
2023-03-06T21:34:30.650Z,62.40
2023-03-06T21:39:33.977Z,59.70
2023-03-06T21:44:37.085Z,50.50
2023-03-06T21:49:40.302Z,68.90
2023-03-06T21:54:43.401Z,60.80
2023-03-06T21:59:46.603Z,49.60
2023-03-06T22:04:53.381Z,45.20
2023-03-06T22:09:56.415Z,42.20
2023-03-06T22:14:59.516Z,62.30
2023-03-06T22:20:02.521Z,62.90
2023-03-06T22:25:06.129Z,41.20
2023-03-06T22:30:09.753Z,32.60
2023-03-06T22:35:12.766Z,37.10
2023-03-06T22:40:16.567Z,44.90
2023-03-06T22:45:19.589Z,70.20
2023-03-06T22:50:22.702Z,50.50
2023-03-06T22:55:26.320Z,46.10
2023-03-06T23:00:29.324Z,39.10
2023-03-06T23:05:32.338Z,46.80
2023-03-06T23:10:39.202Z,53.30
2023-03-06T23:15:42.496Z,51.60
2023-03-06T23:20:45.657Z,58.60
2023-03-06T23:25:49.161Z,42.00
2023-03-06T23:30:52.610Z,39.40
2023-03-06T23:35:55.628Z,41.80
2023-03-06T23:41:03.196Z,50.90
2023-03-06T23:46:07.473Z,51.00
2023-03-06T23:51:19.235Z,50.10
2023-03-06T23:56:22.636Z,67.80
